createdAt,value
2023-07-23T00:04:12.209Z,15.18
2023-07-23T00:10:30.700Z,15.04
2023-07-23T00:16:49.437Z,14.96
2023-07-23T00:23:08.212Z,14.93
2023-07-23T00:29:26.990Z,14.96
2023-07-23T00:35:46.003Z,14.89
2023-07-23T00:42:04.628Z,14.85
2023-07-23T00:48:23.358Z,14.82
2023-07-23T00:54:42.173Z,14.77
2023-07-23T01:01:00.950Z,14.68
2023-07-23T01:07:19.516Z,14.56
2023-07-23T01:13:37.626Z,14.51
2023-07-23T01:19:56.319Z,14.35
2023-07-23T01:26:15.110Z,14.28
2023-07-23T01:32:33.889Z,14.22
2023-07-23T01:38:52.643Z,14.10
2023-07-23T01:45:11.162Z,14.03
2023-07-23T01:51:30.205Z,13.98
2023-07-23T01:57:49.239Z,13.91
2023-07-23T02:04:07.940Z,13.91
2023-07-23T02:10:26.414Z,13.87
2023-07-23T02:16:44.927Z,13.83
2023-07-23T02:23:03.523Z,13.77
2023-07-23T02:29:22.477Z,13.76
2023-07-23T02:35:40.966Z,13.73
2023-07-23T02:41:59.872Z,13.62
2023-07-23T02:48:18.363Z,13.56
2023-07-23T02:54:36.814Z,13.50
2023-07-23T03:00:55.097Z,13.48
2023-07-23T03:07:13.553Z,13.49
2023-07-23T03:13:32.623Z,13.47
2023-07-23T03:19:51.526Z,13.47
2023-07-23T03:26:10.378Z,13.48
2023-07-23T03:32:29.538Z,13.50
2023-07-23T03:38:48.411Z,13.60
2023-07-23T03:45:07.261Z,13.69
2023-07-23T03:51:25.634Z,13.80
2023-07-23T03:57:44.280Z,13.94
2023-07-23T04:04:02.915Z,14.08
2023-07-23T04:10:21.720Z,14.25
2023-07-23T04:16:40.247Z,14.45
2023-07-23T04:22:58.377Z,14.65
2023-07-23T04:29:17.265Z,14.81
2023-07-23T04:35:35.940Z,15.02
2023-07-23T04:41:54.776Z,15.22
2023-07-23T04:48:13.467Z,15.42
2023-07-23T04:54:32.422Z,15.63
2023-07-23T05:00:51.072Z,15.81
2023-07-23T05:07:09.766Z,16.06
2023-07-23T05:13:28.460Z,16.34
2023-07-23T05:19:47.736Z,16.68
2023-07-23T05:26:06.318Z,16.96
2023-07-23T05:32:24.874Z,17.22
2023-07-23T05:38:43.319Z,17.53
2023-07-23T05:45:02.456Z,17.83
2023-07-23T05:51:20.835Z,18.02
2023-07-23T05:57:39.134Z,18.21
2023-07-23T06:03:57.832Z,18.44
2023-07-23T06:10:16.575Z,18.71
2023-07-23T06:16:35.960Z,19.16
2023-07-23T06:22:55.254Z,19.74
2023-07-23T06:29:13.657Z,19.99
2023-07-23T06:35:32.294Z,20.37
2023-07-23T06:41:50.796Z,20.56
2023-07-23T06:48:09.424Z,20.73
2023-07-23T06:54:28.042Z,20.93
2023-07-23T07:00:46.460Z,21.12
2023-07-23T07:07:05.339Z,21.36
2023-07-23T07:13:24.023Z,21.55
2023-07-23T07:19:42.946Z,21.76
2023-07-23T07:26:01.539Z,21.96
2023-07-23T07:32:20.666Z,22.07
2023-07-23T07:38:39.676Z,22.24
2023-07-23T07:44:58.682Z,22.50
2023-07-23T07:51:16.996Z,22.87
2023-07-23T07:57:36.167Z,23.14
2023-07-23T08:03:54.738Z,23.38
2023-07-23T08:10:13.672Z,23.55
2023-07-23T08:16:32.322Z,23.84
2023-07-23T08:22:50.486Z,24.07
2023-07-23T08:29:10.182Z,24.30
2023-07-23T08:35:29.005Z,24.50
2023-07-23T08:41:47.540Z,24.86
2023-07-23T08:48:05.775Z,25.04
2023-07-23T08:54:24.283Z,24.91
2023-07-23T09:00:42.708Z,24.72
2023-07-23T09:07:01.368Z,24.72
2023-07-23T09:13:19.684Z,24.83
2023-07-23T09:19:38.473Z,25.00
2023-07-23T09:25:56.877Z,25.00
2023-07-23T09:32:15.523Z,25.07
2023-07-23T09:38:34.200Z,25.02
2023-07-23T09:44:53.082Z,24.92
2023-07-23T09:51:11.707Z,25.15
2023-07-23T09:57:29.881Z,25.57
2023-07-23T10:03:48.368Z,25.90
2023-07-23T10:10:17.110Z,26.11
2023-07-23T10:16:35.635Z,26.33
2023-07-23T10:22:54.379Z,26.58
2023-07-23T10:29:13.159Z,26.58
2023-07-23T10:35:31.617Z,26.56
2023-07-23T10:41:49.935Z,26.70
2023-07-23T10:48:08.410Z,26.93
2023-07-23T10:54:27.105Z,26.84
2023-07-23T11:00:45.734Z,26.66
2023-07-23T11:07:04.408Z,26.49
2023-07-23T11:13:22.716Z,26.31
2023-07-23T11:19:41.232Z,26.18
2023-07-23T11:25:59.878Z,25.97
2023-07-23T11:32:18.939Z,25.75
2023-07-23T11:38:37.850Z,25.58
2023-07-23T11:44:56.547Z,25.41
2023-07-23T11:51:28.041Z,25.27
2023-07-23T11:57:46.667Z,25.19
2023-07-23T12:04:05.560Z,25.11
2023-07-23T12:10:24.037Z,25.04
2023-07-23T12:16:42.535Z,25.08
2023-07-23T12:23:01.880Z,25.20
2023-07-23T12:29:20.604Z,25.37
2023-07-23T12:35:38.821Z,25.53
2023-07-23T12:41:57.327Z,25.62
2023-07-23T12:48:15.697Z,25.71
2023-07-23T12:54:34.099Z,25.92
2023-07-23T13:00:52.259Z,26.11
2023-07-23T13:07:11.623Z,26.23
2023-07-23T13:13:30.633Z,26.33
2023-07-23T13:19:49.256Z,26.42
2023-07-23T13:26:07.808Z,26.46
2023-07-23T13:32:26.923Z,26.55
2023-07-23T13:38:45.715Z,26.66
2023-07-23T13:45:04.318Z,26.69
2023-07-23T13:51:23.048Z,26.62
2023-07-23T13:57:41.329Z,26.52
2023-07-23T14:03:59.792Z,26.52
2023-07-23T14:10:18.625Z,26.56
2023-07-23T14:16:37.088Z,26.60
2023-07-23T14:22:55.679Z,26.62
2023-07-23T14:29:14.444Z,26.59
2023-07-23T14:35:33.155Z,26.53
2023-07-23T14:41:51.795Z,26.55
2023-07-23T14:48:10.121Z,26.60
2023-07-23T14:54:29.027Z,26.65
2023-07-23T15:00:47.525Z,26.63
2023-07-23T15:07:06.094Z,26.62
2023-07-23T15:13:25.020Z,26.67
2023-07-23T15:19:43.404Z,26.82
2023-07-23T15:26:02.081Z,26.96
2023-07-23T15:32:20.966Z,27.02
2023-07-23T15:38:39.659Z,27.01
2023-07-23T15:44:58.402Z,26.96
2023-07-23T15:51:17.252Z,26.93
2023-07-23T15:57:35.922Z,26.86
2023-07-23T16:03:54.468Z,26.83
2023-07-23T16:10:13.017Z,26.84
2023-07-23T16:16:31.965Z,26.83
2023-07-23T16:22:50.817Z,26.81
2023-07-23T16:29:11.680Z,26.79
2023-07-23T16:35:31.842Z,26.82
2023-07-23T16:41:50.374Z,26.85
2023-07-23T16:48:09.136Z,26.84
2023-07-23T16:54:28.095Z,26.79
2023-07-23T17:00:46.858Z,26.70
2023-07-23T17:07:05.033Z,26.56
2023-07-23T17:13:23.386Z,26.30
2023-07-23T17:19:42.595Z,26.05
2023-07-23T17:26:00.810Z,25.85
2023-07-23T17:32:19.886Z,25.65
2023-07-23T17:38:38.203Z,25.47
2023-07-23T17:44:56.829Z,25.39
2023-07-23T17:51:15.952Z,25.33
2023-07-23T17:57:34.951Z,25.21
2023-07-23T18:03:53.479Z,25.08
2023-07-23T18:10:12.326Z,24.96
2023-07-23T18:16:30.890Z,24.81
2023-07-23T18:22:49.733Z,24.61
2023-07-23T18:29:08.323Z,24.43
2023-07-23T18:35:26.888Z,24.21
2023-07-23T18:41:45.549Z,24.02
2023-07-23T18:48:04.221Z,23.90
2023-07-23T18:54:22.369Z,23.75
2023-07-23T19:00:41.198Z,23.53
2023-07-23T19:07:00.239Z,23.32
2023-07-23T19:13:18.688Z,23.19
2023-07-23T19:19:37.444Z,23.10
2023-07-23T19:25:56.708Z,23.00
2023-07-23T19:32:14.710Z,22.87
2023-07-23T19:38:32.942Z,22.76
2023-07-23T19:44:51.632Z,22.63
2023-07-23T19:51:10.258Z,22.53
2023-07-23T19:57:29.294Z,22.48
2023-07-23T20:03:47.915Z,22.48
2023-07-23T20:10:06.861Z,22.35
2023-07-23T20:16:25.421Z,22.33
2023-07-23T20:28:52.668Z,22.15
2023-07-23T20:35:10.957Z,22.08
2023-07-23T20:41:29.712Z,21.98
2023-07-23T20:47:48.199Z,21.84
2023-07-23T20:54:07.878Z,21.82
2023-07-23T21:00:26.466Z,21.72
2023-07-23T21:06:45.448Z,21.69
2023-07-23T21:13:03.892Z,21.68
2023-07-23T21:19:22.289Z,21.64
2023-07-23T21:25:40.796Z,21.63
2023-07-23T21:31:59.496Z,21.61
2023-07-23T21:38:18.398Z,21.64
2023-07-23T21:44:37.137Z,21.61
2023-07-23T21:50:55.305Z,21.58
2023-07-23T21:57:14.111Z,21.53
2023-07-23T22:03:32.944Z,21.54
2023-07-23T22:09:51.974Z,21.58
2023-07-23T22:16:10.689Z,21.63
2023-07-23T22:22:29.207Z,21.60
2023-07-23T22:28:47.815Z,21.55
2023-07-23T22:35:06.093Z,21.54
2023-07-23T22:41:25.084Z,21.55
2023-07-23T22:47:44.059Z,21.57
2023-07-23T22:54:02.877Z,21.57
2023-07-23T23:00:21.692Z,21.55
2023-07-23T23:06:40.368Z,21.51
2023-07-23T23:12:59.017Z,21.47
2023-07-23T23:19:18.423Z,21.41
2023-07-23T23:25:37.386Z,21.34
2023-07-23T23:31:56.157Z,21.29
2023-07-23T23:38:15.017Z,21.21
2023-07-23T23:44:33.490Z,21.17
2023-07-23T23:50:51.915Z,21.13
2023-07-23T23:57:10.436Z,21.04
